sensor_id;sensor_type;location;lat;lon;timestamp;pressure;altitude;pressure_sealevel;temperature;humidity
60465;BME280;46314;52.392;9.758;2023-04-30T00:01:55;101563.03;;;9.44;67.56
60465;BME280;46314;52.392;9.758;2023-04-30T00:04:23;101561.41;;;9.48;68.08
60465;BME280;46314;52.392;9.758;2023-04-30T00:06:50;101555.16;;;9.10;68.83
60465;BME280;46314;52.392;9.758;2023-04-30T00:09:16;101555.44;;;9.14;68.01
60465;BME280;46314;52.392;9.758;2023-04-30T00:11:43;101561.47;;;9.05;68.65
60465;BME280;46314;52.392;9.758;2023-04-30T00:14:09;101566.88;;;9.33;68.16
60465;BME280;46314;52.392;9.758;2023-04-30T00:16:35;101558.44;;;9.07;68.95
60465;BME280;46314;52.392;9.758;2023-04-30T00:19:02;101561.06;;;9.34;68.25
60465;BME280;46314;52.392;9.758;2023-04-30T00:21:29;101562.88;;;9.08;68.93
60465;BME280;46314;52.392;9.758;2023-04-30T00:23:56;101563.44;;;9.10;69.04
60465;BME280;46314;52.392;9.758;2023-04-30T00:26:22;101566.16;;;9.00;69.16
60465;BME280;46314;52.392;9.758;2023-04-30T00:28:49;101558.63;;;8.85;69.73
60465;BME280;46314;52.392;9.758;2023-04-30T00:31:15;101573.81;;;8.82;70.33
60465;BME280;46314;52.392;9.758;2023-04-30T00:33:42;101566.84;;;8.75;69.83
60465;BME280;46314;52.392;9.758;2023-04-30T00:36:08;101571.66;;;8.52;71.25
60465;BME280;46314;52.392;9.758;2023-04-30T00:38:36;101573.09;;;8.60;70.49
60465;BME280;46314;52.392;9.758;2023-04-30T00:41:03;101581.16;;;9.14;69.18
60465;BME280;46314;52.392;9.758;2023-04-30T00:43:29;101576.66;;;8.98;69.73
60465;BME280;46314;52.392;9.758;2023-04-30T00:45:56;101581.63;;;8.96;68.83
60465;BME280;46314;52.392;9.758;2023-04-30T00:48:22;101579.78;;;9.12;68.22
60465;BME280;46314;52.392;9.758;2023-04-30T00:50:49;101581.16;;;9.14;68.08
60465;BME280;46314;52.392;9.758;2023-04-30T00:53:15;101581.34;;;8.55;70.20
60465;BME280;46314;52.392;9.758;2023-04-30T00:55:44;101589.69;;;8.60;69.96
60465;BME280;46314;52.392;9.758;2023-04-30T00:58:11;101587.25;;;8.68;70.43
60465;BME280;46314;52.392;9.758;2023-04-30T01:00:38;101591.56;;;8.91;69.48
60465;BME280;46314;52.392;9.758;2023-04-30T01:03:04;101593.84;;;9.05;68.59
60465;BME280;46314;52.392;9.758;2023-04-30T01:05:31;101586.91;;;8.97;68.56
60465;BME280;46314;52.392;9.758;2023-04-30T01:07:57;101596.72;;;9.20;68.16
60465;BME280;46314;52.392;9.758;2023-04-30T01:10:27;101603.09;;;8.78;69.90
60465;BME280;46314;52.392;9.758;2023-04-30T01:13:01;101594.34;;;8.97;68.75
60465;BME280;46314;52.392;9.758;2023-04-30T01:15:33;101598.16;;;8.85;69.29
60465;BME280;46314;52.392;9.758;2023-04-30T01:18:04;101603.97;;;8.84;68.86
60465;BME280;46314;52.392;9.758;2023-04-30T01:20:32;101606.47;;;8.85;68.79
60465;BME280;46314;52.392;9.758;2023-04-30T01:23:09;101612.28;;;8.84;68.89
60465;BME280;46314;52.392;9.758;2023-04-30T01:25:52;101611.75;;;8.55;70.04
60465;BME280;46314;52.392;9.758;2023-04-30T01:28:26;101604.72;;;8.74;69.03
60465;BME280;46314;52.392;9.758;2023-04-30T01:30:53;101605.88;;;8.46;70.26
60465;BME280;46314;52.392;9.758;2023-04-30T01:33:20;101606.19;;;8.44;71.12
60465;BME280;46314;52.392;9.758;2023-04-30T01:36:10;101611.69;;;8.82;69.10
60465;BME280;46314;52.392;9.758;2023-04-30T01:38:53;101610.38;;;8.52;70.00
60465;BME280;46314;52.392;9.758;2023-04-30T01:41:28;101616.84;;;8.36;69.93
60465;BME280;46314;52.392;9.758;2023-04-30T01:44:05;101611.94;;;8.75;69.21
60465;BME280;46314;52.392;9.758;2023-04-30T01:46:36;101615.59;;;8.21;70.94
60465;BME280;46314;52.392;9.758;2023-04-30T01:49:07;101621.00;;;8.70;69.55
60465;BME280;46314;52.392;9.758;2023-04-30T01:51:40;101618.91;;;8.18;70.92
60465;BME280;46314;52.392;9.758;2023-04-30T01:54:16;101614.97;;;8.41;69.51
60465;BME280;46314;52.392;9.758;2023-04-30T01:56:53;101616.53;;;8.32;70.76
60465;BME280;46314;52.392;9.758;2023-04-30T01:59:24;101625.97;;;8.36;70.55
60465;BME280;46314;52.392;9.758;2023-04-30T02:01:50;101614.84;;;8.58;69.20
60465;BME280;46314;52.392;9.758;2023-04-30T02:04:17;101621.31;;;8.69;68.45
60465;BME280;46314;52.392;9.758;2023-04-30T02:06:43;101629.28;;;8.65;68.56
60465;BME280;46314;52.392;9.758;2023-04-30T02:09:10;101624.72;;;8.49;68.93
60465;BME280;46314;52.392;9.758;2023-04-30T02:11:36;101625.31;;;8.56;68.53
60465;BME280;46314;52.392;9.758;2023-04-30T02:14:02;101624.19;;;8.52;68.86
60465;BME280;46314;52.392;9.758;2023-04-30T02:16:30;101624.06;;;8.09;70.21
60465;BME280;46314;52.392;9.758;2023-04-30T02:18:57;101627.81;;;8.25;69.89
60465;BME280;46314;52.392;9.758;2023-04-30T02:21:23;101621.06;;;8.16;70.10
60465;BME280;46314;52.392;9.758;2023-04-30T02:23:49;101620.19;;;8.70;68.72
60465;BME280;46314;52.392;9.758;2023-04-30T02:26:16;101629.72;;;8.25;69.49
60465;BME280;46314;52.392;9.758;2023-04-30T02:28:42;101622.59;;;8.02;70.74
60465;BME280;46314;52.392;9.758;2023-04-30T02:31:09;101628.47;;;8.10;70.79
60465;BME280;46314;52.392;9.758;2023-04-30T02:33:37;101633.50;;;8.13;70.87
60465;BME280;46314;52.392;9.758;2023-04-30T02:36:04;101636.56;;;8.17;70.61
60465;BME280;46314;52.392;9.758;2023-04-30T02:38:30;101632.34;;;8.09;70.69
60465;BME280;46314;52.392;9.758;2023-04-30T02:40:56;101627.50;;;7.94;71.86
60465;BME280;46314;52.392;9.758;2023-04-30T02:43:23;101637.28;;;7.80;72.03
60465;BME280;46314;52.392;9.758;2023-04-30T02:45:49;101635.97;;;7.88;71.81
60465;BME280;46314;52.392;9.758;2023-04-30T02:48:16;101640.16;;;8.18;71.23
60465;BME280;46314;52.392;9.758;2023-04-30T02:50:43;101638.00;;;8.20;71.05
60465;BME280;46314;52.392;9.758;2023-04-30T02:53:10;101637.66;;;7.89;71.61
60465;BME280;46314;52.392;9.758;2023-04-30T02:55:36;101647.41;;;7.96;71.17
60465;BME280;46314;52.392;9.758;2023-04-30T02:58:03;101642.78;;;8.02;71.12
60465;BME280;46314;52.392;9.758;2023-04-30T03:00:29;101646.50;;;7.91;71.18
60465;BME280;46314;52.392;9.758;2023-04-30T03:02:55;101656.41;;;7.87;71.77
60465;BME280;46314;52.392;9.758;2023-04-30T03:05:22;101651.97;;;7.86;71.50
60465;BME280;46314;52.392;9.758;2023-04-30T03:07:50;101646.56;;;7.96;71.63
60465;BME280;46314;52.392;9.758;2023-04-30T03:10:17;101650.31;;;7.85;71.94
60465;BME280;46314;52.392;9.758;2023-04-30T03:12:43;101642.75;;;7.75;72.30
60465;BME280;46314;52.392;9.758;2023-04-30T03:15:10;101645.31;;;7.82;71.97
60465;BME280;46314;52.392;9.758;2023-04-30T03:17:37;101648.25;;;7.75;71.79
60465;BME280;46314;52.392;9.758;2023-04-30T03:20:04;101648.69;;;8.16;70.92
60465;BME280;46314;52.392;9.758;2023-04-30T03:22:31;101645.81;;;8.01;71.35
60465;BME280;46314;52.392;9.758;2023-04-30T03:24:58;101649.13;;;8.03;71.08
60465;BME280;46314;52.392;9.758;2023-04-30T03:27:25;101644.78;;;7.85;71.57
60465;BME280;46314;52.392;9.758;2023-04-30T03:29:51;101648.69;;;7.89;71.35
60465;BME280;46314;52.392;9.758;2023-04-30T03:32:18;101649.38;;;7.74;72.39
60465;BME280;46314;52.392;9.758;2023-04-30T03:34:44;101649.03;;;7.48;73.18
60465;BME280;46314;52.392;9.758;2023-04-30T03:37:11;101651.81;;;7.48;73.32
60465;BME280;46314;52.392;9.758;2023-04-30T03:39:37;101646.41;;;7.58;73.34
60465;BME280;46314;52.392;9.758;2023-04-30T03:42:05;101652.44;;;7.77;72.61
60465;BME280;46314;52.392;9.758;2023-04-30T03:44:31;101645.88;;;7.84;71.95
60465;BME280;46314;52.392;9.758;2023-04-30T03:46:58;101648.06;;;8.09;71.41
60465;BME280;46314;52.392;9.758;2023-04-30T03:49:24;101658.00;;;7.83;71.41
60465;BME280;46314;52.392;9.758;2023-04-30T03:51:51;101655.84;;;7.63;72.14
60465;BME280;46314;52.392;9.758;2023-04-30T03:54:17;101665.03;;;7.68;71.91
60465;BME280;46314;52.392;9.758;2023-04-30T03:56:43;101676.25;;;7.84;71.92
60465;BME280;46314;52.392;9.758;2023-04-30T03:59:11;101680.25;;;7.71;71.57
60465;BME280;46314;52.392;9.758;2023-04-30T04:01:38;101675.91;;;7.53;72.57
60465;BME280;46314;52.392;9.758;2023-04-30T04:04:04;101677.72;;;7.47;72.80
60465;BME280;46314;52.392;9.758;2023-04-30T04:06:31;101676.66;;;7.48;73.38
60465;BME280;46314;52.392;9.758;2023-04-30T04:08:57;101679.91;;;7.45;73.46
60465;BME280;46314;52.392;9.758;2023-04-30T04:11:24;101682.75;;;7.72;71.88
60465;BME280;46314;52.392;9.758;2023-04-30T04:13:50;101687.69;;;7.48;72.86
60465;BME280;46314;52.392;9.758;2023-04-30T04:16:18;101689.69;;;7.53;72.18
60465;BME280;46314;52.392;9.758;2023-04-30T04:18:45;101693.34;;;7.58;73.17
60465;BME280;46314;52.392;9.758;2023-04-30T04:21:11;101694.50;;;7.63;71.75
60465;BME280;46314;52.392;9.758;2023-04-30T04:23:37;101693.09;;;7.82;71.29
60465;BME280;46314;52.392;9.758;2023-04-30T04:26:04;101692.06;;;7.66;70.66
60465;BME280;46314;52.392;9.758;2023-04-30T04:28:30;101690.91;;;7.62;70.91
60465;BME280;46314;52.392;9.758;2023-04-30T04:30:56;101699.97;;;7.80;70.71
60465;BME280;46314;52.392;9.758;2023-04-30T04:33:24;101708.25;;;7.57;71.17
60465;BME280;46314;52.392;9.758;2023-04-30T04:35:51;101705.72;;;7.56;71.54
60465;BME280;46314;52.392;9.758;2023-04-30T04:38:17;101704.22;;;7.65;71.44
60465;BME280;46314;52.392;9.758;2023-04-30T04:40:50;101709.06;;;7.58;70.64
60465;BME280;46314;52.392;9.758;2023-04-30T04:43:16;101712.16;;;7.84;70.69
60465;BME280;46314;52.392;9.758;2023-04-30T04:45:43;101702.94;;;7.95;70.72
60465;BME280;46314;52.392;9.758;2023-04-30T04:48:09;101706.38;;;7.63;71.01
60465;BME280;46314;52.392;9.758;2023-04-30T04:50:37;101707.22;;;7.64;71.19
60465;BME280;46314;52.392;9.758;2023-04-30T04:53:03;101719.16;;;7.91;70.33
60465;BME280;46314;52.392;9.758;2023-04-30T04:55:30;101714.41;;;7.65;71.33
60465;BME280;46314;52.392;9.758;2023-04-30T04:57:56;101716.84;;;7.61;71.50
60465;BME280;46314;52.392;9.758;2023-04-30T05:00:22;101725.16;;;7.83;71.50
60465;BME280;46314;52.392;9.758;2023-04-30T05:02:49;101726.88;;;8.11;71.33
60465;BME280;46314;52.392;9.758;2023-04-30T05:05:16;101720.06;;;7.97;71.49
60465;BME280;46314;52.392;9.758;2023-04-30T05:07:43;101728.09;;;7.76;71.34
60465;BME280;46314;52.392;9.758;2023-04-30T05:10:10;101734.16;;;8.23;69.65
60465;BME280;46314;52.392;9.758;2023-04-30T05:12:36;101724.84;;;8.29;69.88
60465;BME280;46314;52.392;9.758;2023-04-30T05:15:03;101728.22;;;8.58;68.98
60465;BME280;46314;52.392;9.758;2023-04-30T05:17:30;101731.94;;;8.74;67.97
60465;BME280;46314;52.392;9.758;2023-04-30T05:19:56;101730.34;;;8.78;67.83
60465;BME280;46314;52.392;9.758;2023-04-30T05:22:23;101736.13;;;8.44;68.95
60465;BME280;46314;52.392;9.758;2023-04-30T05:24:51;101732.28;;;8.50;69.01
60465;BME280;46314;52.392;9.758;2023-04-30T05:27:18;101736.66;;;8.74;68.30
60465;BME280;46314;52.392;9.758;2023-04-30T05:29:44;101738.56;;;8.19;69.10
60465;BME280;46314;52.392;9.758;2023-04-30T05:32:10;101735.56;;;8.47;68.48
60465;BME280;46314;52.392;9.758;2023-04-30T05:34:37;101739.63;;;8.67;67.53
60465;BME280;46314;52.392;9.758;2023-04-30T05:37:03;101737.41;;;8.14;68.08
60465;BME280;46314;52.392;9.758;2023-04-30T05:39:30;101733.53;;;8.65;66.93
60465;BME280;46314;52.392;9.758;2023-04-30T05:41:57;101738.16;;;8.32;66.54
60465;BME280;46314;52.392;9.758;2023-04-30T05:44:24;101740.81;;;8.71;66.67
60465;BME280;46314;52.392;9.758;2023-04-30T05:46:50;101738.81;;;8.99;64.58
60465;BME280;46314;52.392;9.758;2023-04-30T05:49:17;101745.16;;;8.94;64.65
60465;BME280;46314;52.392;9.758;2023-04-30T05:51:43;101745.19;;;9.37;63.94
60465;BME280;46314;52.392;9.758;2023-04-30T05:54:10;101749.94;;;8.22;66.29
60465;BME280;46314;52.392;9.758;2023-04-30T05:56:36;101743.50;;;8.66;65.18
60465;BME280;46314;52.392;9.758;2023-04-30T05:59:04;101745.66;;;8.09;66.11
60465;BME280;46314;52.392;9.758;2023-04-30T06:01:30;101748.97;;;8.88;64.85
60465;BME280;46314;52.392;9.758;2023-04-30T06:03:57;101750.53;;;9.11;63.89
60465;BME280;46314;52.392;9.758;2023-04-30T06:06:23;101764.00;;;8.70;66.01
60465;BME280;46314;52.392;9.758;2023-04-30T06:08:49;101759.53;;;8.42;64.11
60465;BME280;46314;52.392;9.758;2023-04-30T06:11:16;101754.06;;;8.69;63.16
60465;BME280;46314;52.392;9.758;2023-04-30T06:13:46;101753.56;;;8.77;62.19
60465;BME280;46314;52.392;9.758;2023-04-30T06:16:14;101758.69;;;8.63;62.09
60465;BME280;46314;52.392;9.758;2023-04-30T06:18:40;101759.31;;;8.43;62.51
60465;BME280;46314;52.392;9.758;2023-04-30T06:21:07;101764.75;;;8.38;61.22
60465;BME280;46314;52.392;9.758;2023-04-30T06:23:33;101755.78;;;8.26;60.69
60465;BME280;46314;52.392;9.758;2023-04-30T06:26:00;101759.41;;;8.04;60.04
60465;BME280;46314;52.392;9.758;2023-04-30T06:28:26;101770.66;;;8.69;57.79
60465;BME280;46314;52.392;9.758;2023-04-30T06:30:53;101761.63;;;8.29;59.30
60465;BME280;46314;52.392;9.758;2023-04-30T06:33:20;101766.44;;;8.39;58.56
60465;BME280;46314;52.392;9.758;2023-04-30T06:35:47;101763.16;;;8.42;59.12
60465;BME280;46314;52.392;9.758;2023-04-30T06:38:14;101763.81;;;8.77;58.45
60465;BME280;46314;52.392;9.758;2023-04-30T06:40:40;101758.47;;;8.70;58.94
60465;BME280;46314;52.392;9.758;2023-04-30T06:43:06;101770.44;;;8.48;58.94
60465;BME280;46314;52.392;9.758;2023-04-30T06:45:33;101764.44;;;8.84;58.61
60465;BME280;46314;52.392;9.758;2023-04-30T06:47:59;101761.47;;;8.41;59.31
60465;BME280;46314;52.392;9.758;2023-04-30T06:50:27;101753.41;;;8.62;57.85
60465;BME280;46314;52.392;9.758;2023-04-30T06:52:54;101766.66;;;9.19;56.15
60465;BME280;46314;52.392;9.758;2023-04-30T06:55:21;101762.53;;;8.89;56.59
60465;BME280;46314;52.392;9.758;2023-04-30T06:57:47;101758.53;;;9.45;55.51
60465;BME280;46314;52.392;9.758;2023-04-30T07:00:14;101762.34;;;8.69;56.51
60465;BME280;46314;52.392;9.758;2023-04-30T07:02:40;101768.19;;;8.73;57.16
60465;BME280;46314;52.392;9.758;2023-04-30T07:05:07;101771.63;;;8.58;57.26
60465;BME280;46314;52.392;9.758;2023-04-30T07:07:35;101762.94;;;9.03;55.96
60465;BME280;46314;52.392;9.758;2023-04-30T07:10:02;101770.34;;;9.30;55.66
60465;BME280;46314;52.392;9.758;2023-04-30T07:12:28;101771.78;;;8.73;56.75
60465;BME280;46314;52.392;9.758;2023-04-30T07:14:55;101776.09;;;8.91;55.72
60465;BME280;46314;52.392;9.758;2023-04-30T07:17:21;101779.03;;;9.44;55.08
60465;BME280;46314;52.392;9.758;2023-04-30T07:19:48;101766.84;;;9.93;52.70
60465;BME280;46314;52.392;9.758;2023-04-30T07:22:14;101779.84;;;9.07;55.74
60465;BME280;46314;52.392;9.758;2023-04-30T07:24:42;101777.03;;;9.77;53.92
60465;BME280;46314;52.392;9.758;2023-04-30T07:27:08;101775.97;;;14.07;43.51
60465;BME280;46314;52.392;9.758;2023-04-30T07:29:35;101787.38;;;16.04;39.08
60465;BME280;46314;52.392;9.758;2023-04-30T07:32:01;101779.22;;;17.62;35.95
60465;BME280;46314;52.392;9.758;2023-04-30T07:34:28;101792.25;;;23.15;28.31
60465;BME280;46314;52.392;9.758;2023-04-30T07:36:54;101788.75;;;24.62;25.51
60465;BME280;46314;52.392;9.758;2023-04-30T07:39:21;101782.13;;;21.42;28.11
60465;BME280;46314;52.392;9.758;2023-04-30T07:41:48;101771.91;;;14.42;39.24
60465;BME280;46314;52.392;9.758;2023-04-30T07:44:15;101777.66;;;16.15;38.99
60465;BME280;46314;52.392;9.758;2023-04-30T07:46:41;101785.25;;;20.73;31.22
60465;BME280;46314;52.392;9.758;2023-04-30T07:49:08;101778.38;;;13.70;41.61
60465;BME280;46314;52.392;9.758;2023-04-30T07:51:35;101781.34;;;15.69;38.81
60465;BME280;46314;52.392;9.758;2023-04-30T07:54:01;101790.66;;;24.22;26.88
60465;BME280;46314;52.392;9.758;2023-04-30T07:56:28;101775.28;;;20.97;28.92
60465;BME280;46314;52.392;9.758;2023-04-30T07:58:55;101782.16;;;13.79;39.80
60465;BME280;46314;52.392;9.758;2023-04-30T08:01:22;101776.28;;;12.88;43.41
60465;BME280;46314;52.392;9.758;2023-04-30T08:03:49;101784.19;;;19.33;32.10
60465;BME280;46314;52.392;9.758;2023-04-30T08:06:16;101781.16;;;23.38;26.52
60465;BME280;46314;52.392;9.758;2023-04-30T08:08:42;101790.63;;;19.98;29.75
60465;BME280;46314;52.392;9.758;2023-04-30T08:11:09;101795.06;;;19.60;30.49
60465;BME280;46314;52.392;9.758;2023-04-30T08:13:36;101783.19;;;18.50;32.34
60465;BME280;46314;52.392;9.758;2023-04-30T08:16:04;101778.81;;;17.23;34.58
60465;BME280;46314;52.392;9.758;2023-04-30T08:18:31;101773.03;;;20.60;30.30
60465;BME280;46314;52.392;9.758;2023-04-30T08:20:58;101777.06;;;14.11;39.39
60465;BME280;46314;52.392;9.758;2023-04-30T08:23:24;101785.97;;;12.51;44.04
60465;BME280;46314;52.392;9.758;2023-04-30T08:25:51;101786.25;;;17.51;35.08
60465;BME280;46314;52.392;9.758;2023-04-30T08:28:17;101775.13;;;12.89;42.89
60465;BME280;46314;52.392;9.758;2023-04-30T08:30:44;101778.56;;;12.31;44.95
60465;BME280;46314;52.392;9.758;2023-04-30T08:33:12;101781.53;;;12.45;44.61
60465;BME280;46314;52.392;9.758;2023-04-30T08:35:38;101790.13;;;13.91;40.33
60465;BME280;46314;52.392;9.758;2023-04-30T08:38:05;101776.22;;;14.10;40.46
60465;BME280;46314;52.392;9.758;2023-04-30T08:40:34;101783.47;;;12.55;42.82
60465;BME280;46314;52.392;9.758;2023-04-30T08:43:17;101775.44;;;13.80;39.84
60465;BME280;46314;52.392;9.758;2023-04-30T08:45:44;101779.19;;;19.47;30.88
60465;BME280;46314;52.392;9.758;2023-04-30T08:48:12;101775.94;;;14.55;37.41
60465;BME280;46314;52.392;9.758;2023-04-30T08:50:40;101767.72;;;13.14;41.05
60465;BME280;46314;52.392;9.758;2023-04-30T08:53:07;101770.91;;;13.90;40.62
60465;BME280;46314;52.392;9.758;2023-04-30T08:55:37;101766.28;;;12.82;41.85
60465;BME280;46314;52.392;9.758;2023-04-30T08:58:05;101761.84;;;13.98;40.72
60465;BME280;46314;52.392;9.758;2023-04-30T09:00:31;101761.00;;;15.63;36.17
60465;BME280;46314;52.392;9.758;2023-04-30T09:02:59;101757.16;;;15.45;37.00
60465;BME280;46314;52.392;9.758;2023-04-30T09:05:28;101765.50;;;15.31;37.59
60465;BME280;46314;52.392;9.758;2023-04-30T09:07:54;101761.31;;;16.59;34.74
60465;BME280;46314;52.392;9.758;2023-04-30T09:10:31;101764.84;;;22.13;28.54
60465;BME280;46314;52.392;9.758;2023-04-30T09:12:58;101763.69;;;22.02;26.97
60465;BME280;46314;52.392;9.758;2023-04-30T09:15:25;101763.47;;;15.51;35.10
60465;BME280;46314;52.392;9.758;2023-04-30T09:18:05;101773.31;;;14.64;37.24
60465;BME280;46314;52.392;9.758;2023-04-30T09:20:33;101762.44;;;15.80;35.97
60465;BME280;46314;52.392;9.758;2023-04-30T09:23:06;101766.28;;;15.51;37.13
60465;BME280;46314;52.392;9.758;2023-04-30T09:25:37;101768.66;;;17.99;34.13
60465;BME280;46314;52.392;9.758;2023-04-30T09:28:08;101767.44;;;20.01;30.25
60465;BME280;46314;52.392;9.758;2023-04-30T09:30:35;101765.28;;;22.93;26.82
60465;BME280;46314;52.392;9.758;2023-04-30T09:33:02;101767.69;;;23.79;25.42
60465;BME280;46314;52.392;9.758;2023-04-30T09:35:28;101755.75;;;23.26;25.64
60465;BME280;46314;52.392;9.758;2023-04-30T09:37:58;101750.34;;;16.85;32.31
60465;BME280;46314;52.392;9.758;2023-04-30T09:40:31;101747.56;;;14.67;36.11
60465;BME280;46314;52.392;9.758;2023-04-30T09:42:59;101746.44;;;14.25;37.26
60465;BME280;46314;52.392;9.758;2023-04-30T09:45:25;101740.47;;;14.12;37.13
60465;BME280;46314;52.392;9.758;2023-04-30T09:47:51;101736.16;;;12.89;39.05
60465;BME280;46314;52.392;9.758;2023-04-30T09:50:25;101740.81;;;12.99;39.08
60465;BME280;46314;52.392;9.758;2023-04-30T09:52:52;101736.16;;;12.89;41.10
60465;BME280;46314;52.392;9.758;2023-04-30T09:55:21;101740.28;;;14.28;39.17
60465;BME280;46314;52.392;9.758;2023-04-30T09:57:47;101734.00;;;12.81;41.49
60465;BME280;46314;52.392;9.758;2023-04-30T10:00:15;101728.28;;;13.60;39.49
60465;BME280;46314;52.392;9.758;2023-04-30T10:02:42;101727.16;;;13.61;39.84
60465;BME280;46314;52.392;9.758;2023-04-30T10:05:09;101731.19;;;13.50;39.86
60465;BME280;46314;52.392;9.758;2023-04-30T10:07:38;101723.03;;;13.82;39.90
60465;BME280;46314;52.392;9.758;2023-04-30T10:10:07;101716.75;;;13.13;39.01
60465;BME280;46314;52.392;9.758;2023-04-30T10:12:38;101721.44;;;14.76;37.89
60465;BME280;46314;52.392;9.758;2023-04-30T10:15:11;101720.50;;;13.57;38.35
60465;BME280;46314;52.392;9.758;2023-04-30T10:17:40;101720.06;;;14.36;36.74
60465;BME280;46314;52.392;9.758;2023-04-30T10:20:08;101722.25;;;14.20;37.10
60465;BME280;46314;52.392;9.758;2023-04-30T10:22:35;101724.28;;;14.33;36.91
60465;BME280;46314;52.392;9.758;2023-04-30T10:25:02;101723.56;;;15.92;35.98
60465;BME280;46314;52.392;9.758;2023-04-30T10:27:29;101722.38;;;15.65;37.05
60465;BME280;46314;52.392;9.758;2023-04-30T10:29:58;101718.47;;;16.81;35.75
60465;BME280;46314;52.392;9.758;2023-04-30T10:32:29;101719.72;;;16.52;34.37
60465;BME280;46314;52.392;9.758;2023-04-30T10:35:05;101715.84;;;16.62;35.02
60465;BME280;46314;52.392;9.758;2023-04-30T10:37:39;101712.75;;;14.21;37.38
60465;BME280;46314;52.392;9.758;2023-04-30T10:40:09;101710.66;;;13.40;39.13
60465;BME280;46314;52.392;9.758;2023-04-30T10:42:36;101705.59;;;15.65;36.29
60465;BME280;46314;52.392;9.758;2023-04-30T10:45:04;101706.31;;;14.01;37.74
60465;BME280;46314;52.392;9.758;2023-04-30T10:47:35;101692.78;;;15.92;35.57
60465;BME280;46314;52.392;9.758;2023-04-30T10:50:02;101687.19;;;16.06;34.73
60465;BME280;46314;52.392;9.758;2023-04-30T10:52:29;101698.94;;;15.33;35.64
60465;BME280;46314;52.392;9.758;2023-04-30T10:54:55;101690.88;;;14.85;36.01
60465;BME280;46314;52.392;9.758;2023-04-30T10:57:21;101687.41;;;15.96;36.21
60465;BME280;46314;52.392;9.758;2023-04-30T10:59:51;101689.78;;;16.98;35.01
60465;BME280;46314;52.392;9.758;2023-04-30T11:02:20;101684.25;;;14.95;35.39
60465;BME280;46314;52.392;9.758;2023-04-30T11:05:09;101684.91;;;15.94;34.82
60465;BME280;46314;52.392;9.758;2023-04-30T11:07:36;101676.53;;;16.31;35.16
60465;BME280;46314;52.392;9.758;2023-04-30T11:10:03;101679.09;;;16.41;34.55
60465;BME280;46314;52.392;9.758;2023-04-30T11:12:32;101671.28;;;16.74;33.77
60465;BME280;46314;52.392;9.758;2023-04-30T11:15:00;101680.53;;;14.10;37.13
60465;BME280;46314;52.392;9.758;2023-04-30T11:17:32;101665.75;;;14.99;36.20
60465;BME280;46314;52.392;9.758;2023-04-30T11:20:00;101668.00;;;16.36;34.64
60465;BME280;46314;52.392;9.758;2023-04-30T11:22:28;101656.00;;;16.80;34.11
60465;BME280;46314;52.392;9.758;2023-04-30T11:25:03;101674.75;;;16.35;33.77
60465;BME280;46314;52.392;9.758;2023-04-30T11:27:30;101664.41;;;17.03;32.86
60465;BME280;46314;52.392;9.758;2023-04-30T11:29:58;101665.38;;;16.98;32.94
60465;BME280;46314;52.392;9.758;2023-04-30T11:32:26;101662.66;;;17.16;32.92
60465;BME280;46314;52.392;9.758;2023-04-30T11:34:58;101664.41;;;16.80;34.05
60465;BME280;46314;52.392;9.758;2023-04-30T11:37:30;101659.94;;;17.02;33.30
60465;BME280;46314;52.392;9.758;2023-04-30T11:39:59;101651.44;;;17.16;33.33
60465;BME280;46314;52.392;9.758;2023-04-30T11:42:26;101656.19;;;15.47;33.71
60465;BME280;46314;52.392;9.758;2023-04-30T11:44:52;101660.31;;;14.37;35.06
60465;BME280;46314;52.392;9.758;2023-04-30T11:47:18;101663.34;;;14.22;36.45
60465;BME280;46314;52.392;9.758;2023-04-30T11:49:45;101661.47;;;14.55;36.09
60465;BME280;46314;52.392;9.758;2023-04-30T11:52:13;101653.06;;;16.04;34.57
60465;BME280;46314;52.392;9.758;2023-04-30T11:54:39;101643.66;;;16.36;34.16
60465;BME280;46314;52.392;9.758;2023-04-30T11:57:06;101638.16;;;16.99;32.95
60465;BME280;46314;52.392;9.758;2023-04-30T11:59:39;101642.00;;;16.80;33.32
60465;BME280;46314;52.392;9.758;2023-04-30T12:02:06;101646.28;;;16.55;32.69
60465;BME280;46314;52.392;9.758;2023-04-30T12:04:32;101630.50;;;17.13;32.44
60465;BME280;46314;52.392;9.758;2023-04-30T12:06:59;101634.94;;;16.38;32.93
60465;BME280;46314;52.392;9.758;2023-04-30T12:09:27;101631.97;;;17.11;32.83
60465;BME280;46314;52.392;9.758;2023-04-30T12:11:54;101627.22;;;16.66;33.46
60465;BME280;46314;52.392;9.758;2023-04-30T12:14:23;101637.09;;;15.07;35.43
60465;BME280;46314;52.392;9.758;2023-04-30T12:16:51;101635.16;;;15.08;35.28
60465;BME280;46314;52.392;9.758;2023-04-30T12:19:19;101636.56;;;15.05;35.88
60465;BME280;46314;52.392;9.758;2023-04-30T12:21:47;101627.09;;;15.48;34.64
60465;BME280;46314;52.392;9.758;2023-04-30T12:24:15;101618.81;;;15.29;34.76
60465;BME280;46314;52.392;9.758;2023-04-30T12:26:43;101622.44;;;15.29;35.28
60465;BME280;46314;52.392;9.758;2023-04-30T12:29:10;101630.41;;;15.36;34.31
60465;BME280;46314;52.392;9.758;2023-04-30T12:31:41;101630.19;;;14.72;34.94
60465;BME280;46314;52.392;9.758;2023-04-30T12:34:09;101624.69;;;15.00;34.58
60465;BME280;46314;52.392;9.758;2023-04-30T12:36:38;101631.41;;;16.09;33.62
60465;BME280;46314;52.392;9.758;2023-04-30T12:39:05;101624.38;;;15.98;32.98
60465;BME280;46314;52.392;9.758;2023-04-30T12:41:35;101631.06;;;14.34;35.36
60465;BME280;46314;52.392;9.758;2023-04-30T12:44:17;101624.41;;;14.49;35.20
60465;BME280;46314;52.392;9.758;2023-04-30T12:46:44;101620.78;;;14.30;35.12
60465;BME280;46314;52.392;9.758;2023-04-30T12:49:11;101611.16;;;15.62;33.92
60465;BME280;46314;52.392;9.758;2023-04-30T12:51:41;101614.81;;;16.58;32.48
60465;BME280;46314;52.392;9.758;2023-04-30T12:54:08;101611.88;;;15.54;33.46
60465;BME280;46314;52.392;9.758;2023-04-30T12:56:34;101604.09;;;14.95;33.74
60465;BME280;46314;52.392;9.758;2023-04-30T12:59:00;101606.16;;;14.90;33.92